sensor_id;sensor_type;location;lat;lon;timestamp;P1;durP1;ratioP1;P2;durP2;ratioP2
36585;SDS011;22591;48.314;11.562;2023-07-24T00:00:19;16.45;;;9.45;;
36585;SDS011;22591;48.314;11.562;2023-07-24T00:02:45;13.13;;;10.13;;
36585;SDS011;22591;48.314;11.562;2023-07-24T00:05:10;10.13;;;8.35;;
36585;SDS011;22591;48.314;11.562;2023-07-24T00:07:36;9.80;;;7.82;;
36585;SDS011;22591;48.314;11.562;2023-07-24T00:10:02;10.30;;;8.10;;
36585;SDS011;22591;48.314;11.562;2023-07-24T00:12:28;9.30;;;8.32;;
36585;SDS011;22591;48.314;11.562;2023-07-24T00:14:53;12.15;;;8.50;;
36585;SDS011;22591;48.314;11.562;2023-07-24T00:17:19;11.55;;;8.48;;
36585;SDS011;22591;48.314;11.562;2023-07-24T00:19:45;10.20;;;8.10;;
36585;SDS011;22591;48.314;11.562;2023-07-24T00:22:10;12.75;;;8.10;;
36585;SDS011;22591;48.314;11.562;2023-07-24T00:24:36;10.00;;;8.32;;
36585;SDS011;22591;48.314;11.562;2023-07-24T00:27:01;13.32;;;8.55;;
36585;SDS011;22591;48.314;11.562;2023-07-24T00:29:27;14.18;;;10.60;;
36585;SDS011;22591;48.314;11.562;2023-07-24T00:31:53;10.57;;;8.98;;
36585;SDS011;22591;48.314;11.562;2023-07-24T00:34:19;14.18;;;9.48;;
36585;SDS011;22591;48.314;11.562;2023-07-24T00:36:44;12.77;;;8.85;;
36585;SDS011;22591;48.314;11.562;2023-07-24T00:39:10;12.75;;;9.40;;
36585;SDS011;22591;48.314;11.562;2023-07-24T00:41:35;9.30;;;8.30;;
36585;SDS011;22591;48.314;11.562;2023-07-24T00:44:01;10.82;;;8.05;;
36585;SDS011;22591;48.314;11.562;2023-07-24T00:46:26;14.27;;;10.27;;
36585;SDS011;22591;48.314;11.562;2023-07-24T00:48:56;14.40;;;9.95;;
36585;SDS011;22591;48.314;11.562;2023-07-24T00:51:26;10.88;;;8.88;;
36585;SDS011;22591;48.314;11.562;2023-07-24T00:53:54;9.98;;;8.80;;
36585;SDS011;22591;48.314;11.562;2023-07-24T00:56:21;12.43;;;8.60;;
36585;SDS011;22591;48.314;11.562;2023-07-24T00:58:47;13.52;;;9.30;;
36585;SDS011;22591;48.314;11.562;2023-07-24T01:01:13;11.88;;;9.50;;
36585;SDS011;22591;48.314;11.562;2023-07-24T01:03:41;10.18;;;9.10;;
36585;SDS011;22591;48.314;11.562;2023-07-24T01:06:08;9.93;;;8.48;;
36585;SDS011;22591;48.314;11.562;2023-07-24T01:08:34;12.05;;;9.07;;
36585;SDS011;22591;48.314;11.562;2023-07-24T01:11:18;19.35;;;10.00;;
36585;SDS011;22591;48.314;11.562;2023-07-24T01:16:36;11.98;;;9.88;;
36585;SDS011;22591;48.314;11.562;2023-07-24T01:19:03;11.38;;;8.55;;
36585;SDS011;22591;48.314;11.562;2023-07-24T01:21:33;11.95;;;9.80;;
36585;SDS011;22591;48.314;11.562;2023-07-24T01:24:23;11.77;;;9.05;;
36585;SDS011;22591;48.314;11.562;2023-07-24T01:26:54;13.50;;;8.77;;
36585;SDS011;22591;48.314;11.562;2023-07-24T01:29:20;12.50;;;9.52;;
36585;SDS011;22591;48.314;11.562;2023-07-24T01:31:45;11.88;;;8.93;;
36585;SDS011;22591;48.314;11.562;2023-07-24T01:34:11;13.15;;;10.50;;
36585;SDS011;22591;48.314;11.562;2023-07-24T01:36:36;10.70;;;9.43;;
36585;SDS011;22591;48.314;11.562;2023-07-24T01:39:02;10.05;;;8.95;;
36585;SDS011;22591;48.314;11.562;2023-07-24T01:41:28;9.48;;;8.48;;
36585;SDS011;22591;48.314;11.562;2023-07-24T01:43:54;16.50;;;9.80;;
36585;SDS011;22591;48.314;11.562;2023-07-24T01:46:19;12.55;;;8.98;;
36585;SDS011;22591;48.314;11.562;2023-07-24T01:48:45;13.40;;;9.73;;
36585;SDS011;22591;48.314;11.562;2023-07-24T01:51:11;11.98;;;9.02;;
36585;SDS011;22591;48.314;11.562;2023-07-24T01:53:37;14.40;;;9.20;;
36585;SDS011;22591;48.314;11.562;2023-07-24T01:56:02;10.43;;;8.93;;
36585;SDS011;22591;48.314;11.562;2023-07-24T01:58:28;10.77;;;9.40;;
36585;SDS011;22591;48.314;11.562;2023-07-24T02:00:56;10.43;;;9.20;;
36585;SDS011;22591;48.314;11.562;2023-07-24T02:03:22;13.18;;;8.77;;
36585;SDS011;22591;48.314;11.562;2023-07-24T02:05:50;9.55;;;8.55;;
36585;SDS011;22591;48.314;11.562;2023-07-24T02:08:16;12.40;;;9.60;;
36585;SDS011;22591;48.314;11.562;2023-07-24T02:10:42;10.45;;;8.40;;
36585;SDS011;22591;48.314;11.562;2023-07-24T02:13:07;12.10;;;8.90;;
36585;SDS011;22591;48.314;11.562;2023-07-24T02:15:34;9.73;;;8.38;;
36585;SDS011;22591;48.314;11.562;2023-07-24T02:18:00;11.50;;;9.45;;
36585;SDS011;22591;48.314;11.562;2023-07-24T02:20:25;12.60;;;10.52;;
36585;SDS011;22591;48.314;11.562;2023-07-24T02:22:51;12.85;;;9.35;;
36585;SDS011;22591;48.314;11.562;2023-07-24T02:25:16;12.55;;;9.63;;
36585;SDS011;22591;48.314;11.562;2023-07-24T02:27:42;11.90;;;9.73;;
36585;SDS011;22591;48.314;11.562;2023-07-24T02:30:07;12.98;;;9.63;;
36585;SDS011;22591;48.314;11.562;2023-07-24T02:32:33;16.23;;;10.38;;
36585;SDS011;22591;48.314;11.562;2023-07-24T02:34:59;16.42;;;9.95;;
36585;SDS011;22591;48.314;11.562;2023-07-24T02:37:24;13.05;;;9.80;;
36585;SDS011;22591;48.314;11.562;2023-07-24T02:39:51;13.05;;;9.65;;
36585;SDS011;22591;48.314;11.562;2023-07-24T02:42:18;12.77;;;9.82;;
36585;SDS011;22591;48.314;11.562;2023-07-24T02:44:43;11.65;;;8.98;;
36585;SDS011;22591;48.314;11.562;2023-07-24T02:47:09;11.25;;;8.50;;
36585;SDS011;22591;48.314;11.562;2023-07-24T02:49:34;12.63;;;9.40;;
36585;SDS011;22591;48.314;11.562;2023-07-24T02:52:00;11.43;;;8.93;;
36585;SDS011;22591;48.314;11.562;2023-07-24T02:54:25;12.38;;;9.65;;
36585;SDS011;22591;48.314;11.562;2023-07-24T02:56:52;12.60;;;9.43;;
36585;SDS011;22591;48.314;11.562;2023-07-24T02:59:17;11.90;;;9.18;;
36585;SDS011;22591;48.314;11.562;2023-07-24T03:01:43;11.05;;;9.10;;
36585;SDS011;22591;48.314;11.562;2023-07-24T03:04:09;12.25;;;9.77;;
36585;SDS011;22591;48.314;11.562;2023-07-24T03:06:34;14.43;;;9.85;;
36585;SDS011;22591;48.314;11.562;2023-07-24T03:09:00;14.82;;;9.50;;
36585;SDS011;22591;48.314;11.562;2023-07-24T03:11:26;12.18;;;10.10;;
36585;SDS011;22591;48.314;11.562;2023-07-24T03:13:51;17.45;;;10.13;;
36585;SDS011;22591;48.314;11.562;2023-07-24T03:16:17;21.08;;;10.95;;
36585;SDS011;22591;48.314;11.562;2023-07-24T03:18:44;20.25;;;12.02;;
36585;SDS011;22591;48.314;11.562;2023-07-24T03:21:10;15.45;;;11.52;;
36585;SDS011;22591;48.314;11.562;2023-07-24T03:23:35;14.40;;;12.02;;
36585;SDS011;22591;48.314;11.562;2023-07-24T03:26:01;16.63;;;11.07;;
36585;SDS011;22591;48.314;11.562;2023-07-24T03:28:26;14.88;;;11.73;;
36585;SDS011;22591;48.314;11.562;2023-07-24T03:30:52;20.02;;;12.93;;
36585;SDS011;22591;48.314;11.562;2023-07-24T03:33:18;16.15;;;12.55;;
36585;SDS011;22591;48.314;11.562;2023-07-24T03:35:45;16.60;;;12.65;;
36585;SDS011;22591;48.314;11.562;2023-07-24T03:38:10;14.55;;;11.63;;
36585;SDS011;22591;48.314;11.562;2023-07-24T03:40:36;15.57;;;12.45;;
36585;SDS011;22591;48.314;11.562;2023-07-24T03:43:01;12.73;;;11.40;;
36585;SDS011;22591;48.314;11.562;2023-07-24T03:45:27;15.02;;;12.13;;
36585;SDS011;22591;48.314;11.562;2023-07-24T03:47:52;13.40;;;11.80;;
36585;SDS011;22591;48.314;11.562;2023-07-24T03:50:18;15.48;;;13.13;;
36585;SDS011;22591;48.314;11.562;2023-07-24T03:52:44;17.85;;;13.07;;
36585;SDS011;22591;48.314;11.562;2023-07-24T03:55:09;17.77;;;13.25;;
36585;SDS011;22591;48.314;11.562;2023-07-24T03:57:35;15.63;;;12.63;;
36585;SDS011;22591;48.314;11.562;2023-07-24T04:00:01;16.98;;;13.63;;
36585;SDS011;22591;48.314;11.562;2023-07-24T04:02:27;15.80;;;12.82;;
36585;SDS011;22591;48.314;11.562;2023-07-24T04:04:53;15.88;;;13.18;;
36585;SDS011;22591;48.314;11.562;2023-07-24T04:07:18;15.02;;;12.20;;
36585;SDS011;22591;48.314;11.562;2023-07-24T04:09:45;15.70;;;13.07;;
36585;SDS011;22591;48.314;11.562;2023-07-24T04:12:10;16.73;;;13.48;;
36585;SDS011;22591;48.314;11.562;2023-07-24T04:14:36;17.27;;;14.00;;
36585;SDS011;22591;48.314;11.562;2023-07-24T04:17:01;14.35;;;11.77;;
36585;SDS011;22591;48.314;11.562;2023-07-24T04:19:27;15.75;;;13.10;;
36585;SDS011;22591;48.314;11.562;2023-07-24T04:21:52;18.90;;;14.50;;
36585;SDS011;22591;48.314;11.562;2023-07-24T04:24:18;17.08;;;12.77;;
36585;SDS011;22591;48.314;11.562;2023-07-24T04:26:43;12.65;;;11.38;;
36585;SDS011;22591;48.314;11.562;2023-07-24T04:29:09;17.17;;;12.85;;
36585;SDS011;22591;48.314;11.562;2023-07-24T04:31:34;19.70;;;14.93;;
36585;SDS011;22591;48.314;11.562;2023-07-24T04:34:00;19.00;;;14.25;;
36585;SDS011;22591;48.314;11.562;2023-07-24T04:36:26;17.90;;;13.95;;
36585;SDS011;22591;48.314;11.562;2023-07-24T04:38:51;21.40;;;15.18;;
36585;SDS011;22591;48.314;11.562;2023-07-24T04:41:17;22.35;;;15.13;;
36585;SDS011;22591;48.314;11.562;2023-07-24T04:43:42;19.55;;;15.27;;
36585;SDS011;22591;48.314;11.562;2023-07-24T04:46:08;18.52;;;13.52;;
36585;SDS011;22591;48.314;11.562;2023-07-24T04:48:33;20.55;;;14.52;;
36585;SDS011;22591;48.314;11.562;2023-07-24T04:50:59;15.63;;;13.02;;
36585;SDS011;22591;48.314;11.562;2023-07-24T04:53:24;18.02;;;13.68;;
36585;SDS011;22591;48.314;11.562;2023-07-24T04:55:50;16.98;;;12.90;;
36585;SDS011;22591;48.314;11.562;2023-07-24T04:58:15;17.23;;;13.65;;
36585;SDS011;22591;48.314;11.562;2023-07-24T05:00:41;17.63;;;12.77;;
36585;SDS011;22591;48.314;11.562;2023-07-24T05:03:06;20.15;;;13.98;;
36585;SDS011;22591;48.314;11.562;2023-07-24T05:05:35;19.95;;;15.52;;
36585;SDS011;22591;48.314;11.562;2023-07-24T05:08:04;20.48;;;16.00;;
36585;SDS011;22591;48.314;11.562;2023-07-24T05:10:34;21.08;;;14.10;;
36585;SDS011;22591;48.314;11.562;2023-07-24T05:13:00;23.85;;;15.32;;
36585;SDS011;22591;48.314;11.562;2023-07-24T05:15:26;20.02;;;14.48;;
36585;SDS011;22591;48.314;11.562;2023-07-24T05:17:51;19.92;;;13.32;;
36585;SDS011;22591;48.314;11.562;2023-07-24T05:20:17;17.75;;;13.07;;
36585;SDS011;22591;48.314;11.562;2023-07-24T05:22:42;22.50;;;14.70;;
36585;SDS011;22591;48.314;11.562;2023-07-24T05:25:08;22.60;;;14.55;;
36585;SDS011;22591;48.314;11.562;2023-07-24T05:27:33;20.42;;;14.50;;
36585;SDS011;22591;48.314;11.562;2023-07-24T05:29:59;19.35;;;13.85;;
36585;SDS011;22591;48.314;11.562;2023-07-24T05:32:24;18.92;;;14.68;;
36585;SDS011;22591;48.314;11.562;2023-07-24T05:34:50;19.50;;;14.65;;
36585;SDS011;22591;48.314;11.562;2023-07-24T05:37:15;20.88;;;15.15;;
36585;SDS011;22591;48.314;11.562;2023-07-24T05:39:41;21.20;;;14.40;;
36585;SDS011;22591;48.314;11.562;2023-07-24T05:42:07;19.95;;;14.15;;
36585;SDS011;22591;48.314;11.562;2023-07-24T05:44:32;17.63;;;12.90;;
36585;SDS011;22591;48.314;11.562;2023-07-24T05:47:00;17.13;;;13.25;;
36585;SDS011;22591;48.314;11.562;2023-07-24T05:49:26;16.48;;;12.05;;
36585;SDS011;22591;48.314;11.562;2023-07-24T05:51:51;15.32;;;12.70;;
36585;SDS011;22591;48.314;11.562;2023-07-24T05:54:19;19.80;;;13.68;;
36585;SDS011;22591;48.314;11.562;2023-07-24T05:56:44;14.90;;;12.23;;
36585;SDS011;22591;48.314;11.562;2023-07-24T05:59:10;14.55;;;11.32;;
36585;SDS011;22591;48.314;11.562;2023-07-24T06:01:35;14.10;;;12.18;;
36585;SDS011;22591;48.314;11.562;2023-07-24T06:04:01;18.33;;;12.88;;
36585;SDS011;22591;48.314;11.562;2023-07-24T06:06:26;13.55;;;11.35;;
36585;SDS011;22591;48.314;11.562;2023-07-24T06:08:53;13.82;;;11.25;;
36585;SDS011;22591;48.314;11.562;2023-07-24T06:11:18;16.55;;;11.98;;
36585;SDS011;22591;48.314;11.562;2023-07-24T06:13:44;14.90;;;12.15;;
36585;SDS011;22591;48.314;11.562;2023-07-24T06:16:09;14.77;;;10.48;;
36585;SDS011;22591;48.314;11.562;2023-07-24T06:18:37;13.73;;;11.05;;
36585;SDS011;22591;48.314;11.562;2023-07-24T06:21:03;12.32;;;10.80;;
36585;SDS011;22591;48.314;11.562;2023-07-24T06:23:28;11.18;;;9.63;;
36585;SDS011;22591;48.314;11.562;2023-07-24T06:25:54;15.10;;;11.77;;
36585;SDS011;22591;48.314;11.562;2023-07-24T06:28:20;13.85;;;10.07;;
36585;SDS011;22591;48.314;11.562;2023-07-24T06:30:46;12.70;;;9.70;;
36585;SDS011;22591;48.314;11.562;2023-07-24T06:33:11;11.73;;;9.93;;
36585;SDS011;22591;48.314;11.562;2023-07-24T06:35:37;10.85;;;9.77;;
36585;SDS011;22591;48.314;11.562;2023-07-24T06:38:02;10.55;;;9.45;;
36585;SDS011;22591;48.314;11.562;2023-07-24T06:40:28;11.05;;;9.65;;
36585;SDS011;22591;48.314;11.562;2023-07-24T06:42:53;11.93;;;9.75;;
36585;SDS011;22591;48.314;11.562;2023-07-24T06:45:19;10.15;;;9.15;;
36585;SDS011;22591;48.314;11.562;2023-07-24T06:47:45;9.60;;;8.73;;
36585;SDS011;22591;48.314;11.562;2023-07-24T06:50:10;9.82;;;8.82;;
36585;SDS011;22591;48.314;11.562;2023-07-24T06:52:36;11.07;;;9.32;;
36585;SDS011;22591;48.314;11.562;2023-07-24T06:55:01;10.70;;;9.52;;
36585;SDS011;22591;48.314;11.562;2023-07-24T06:57:27;11.32;;;10.00;;
36585;SDS011;22591;48.314;11.562;2023-07-24T06:59:53;10.98;;;9.77;;
36585;SDS011;22591;48.314;11.562;2023-07-24T07:02:18;10.80;;;9.75;;
36585;SDS011;22591;48.314;11.562;2023-07-24T07:04:44;10.20;;;9.05;;
36585;SDS011;22591;48.314;11.562;2023-07-24T07:07:09;11.10;;;9.68;;
36585;SDS011;22591;48.314;11.562;2023-07-24T07:09:35;10.50;;;9.48;;
36585;SDS011;22591;48.314;11.562;2023-07-24T07:12:00;10.65;;;9.32;;
36585;SDS011;22591;48.314;11.562;2023-07-24T07:14:26;10.90;;;9.80;;
36585;SDS011;22591;48.314;11.562;2023-07-24T07:16:51;11.45;;;10.25;;
36585;SDS011;22591;48.314;11.562;2023-07-24T07:19:17;11.65;;;9.93;;
36585;SDS011;22591;48.314;11.562;2023-07-24T07:21:42;11.52;;;10.40;;
36585;SDS011;22591;48.314;11.562;2023-07-24T07:24:08;11.43;;;9.10;;
36585;SDS011;22591;48.314;11.562;2023-07-24T07:26:33;14.68;;;10.35;;
36585;SDS011;22591;48.314;11.562;2023-07-24T07:28:59;19.52;;;9.95;;
36585;SDS011;22591;48.314;11.562;2023-07-24T07:31:24;14.23;;;9.63;;
36585;SDS011;22591;48.314;11.562;2023-07-24T07:33:50;10.65;;;9.55;;
36585;SDS011;22591;48.314;11.562;2023-07-24T07:36:16;10.55;;;9.02;;
36585;SDS011;22591;48.314;11.562;2023-07-24T07:38:42;13.18;;;10.13;;
36585;SDS011;22591;48.314;11.562;2023-07-24T07:41:08;12.40;;;9.25;;
36585;SDS011;22591;48.314;11.562;2023-07-24T07:43:34;11.60;;;9.95;;
36585;SDS011;22591;48.314;11.562;2023-07-24T07:46:01;12.13;;;9.20;;
36585;SDS011;22591;48.314;11.562;2023-07-24T07:48:27;9.85;;;8.65;;
36585;SDS011;22591;48.314;11.562;2023-07-24T07:50:52;12.75;;;9.65;;
36585;SDS011;22591;48.314;11.562;2023-07-24T07:53:18;13.25;;;9.13;;
36585;SDS011;22591;48.314;11.562;2023-07-24T07:55:43;12.18;;;9.13;;
36585;SDS011;22591;48.314;11.562;2023-07-24T07:58:09;11.48;;;8.63;;
36585;SDS011;22591;48.314;11.562;2023-07-24T08:00:34;14.23;;;8.70;;
36585;SDS011;22591;48.314;11.562;2023-07-24T08:03:00;10.85;;;7.80;;
36585;SDS011;22591;48.314;11.562;2023-07-24T08:05:25;11.07;;;7.80;;
36585;SDS011;22591;48.314;11.562;2023-07-24T08:07:51;9.82;;;8.02;;
36585;SDS011;22591;48.314;11.562;2023-07-24T08:10:17;10.95;;;8.60;;
36585;SDS011;22591;48.314;11.562;2023-07-24T08:12:42;9.50;;;8.27;;
36585;SDS011;22591;48.314;11.562;2023-07-24T08:15:09;8.82;;;8.02;;
36585;SDS011;22591;48.314;11.562;2023-07-24T08:17:35;9.70;;;7.68;;
36585;SDS011;22591;48.314;11.562;2023-07-24T08:20:00;11.90;;;9.50;;
36585;SDS011;22591;48.314;11.562;2023-07-24T08:22:26;12.23;;;9.30;;
36585;SDS011;22591;48.314;11.562;2023-07-24T08:24:51;11.10;;;8.57;;
36585;SDS011;22591;48.314;11.562;2023-07-24T08:27:17;10.35;;;9.35;;
36585;SDS011;22591;48.314;11.562;2023-07-24T08:29:42;10.35;;;9.13;;
36585;SDS011;22591;48.314;11.562;2023-07-24T08:32:08;11.38;;;8.85;;
36585;SDS011;22591;48.314;11.562;2023-07-24T08:34:33;9.60;;;8.63;;
36585;SDS011;22591;48.314;11.562;2023-07-24T08:36:59;9.98;;;8.98;;
36585;SDS011;22591;48.314;11.562;2023-07-24T08:39:25;11.73;;;9.77;;
36585;SDS011;22591;48.314;11.562;2023-07-24T08:41:50;10.00;;;8.65;;
36585;SDS011;22591;48.314;11.562;2023-07-24T08:44:16;9.75;;;8.75;;
36585;SDS011;22591;48.314;11.562;2023-07-24T08:46:41;10.20;;;9.07;;
36585;SDS011;22591;48.314;11.562;2023-07-24T08:49:11;9.25;;;8.35;;
36585;SDS011;22591;48.314;11.562;2023-07-24T08:51:37;9.68;;;8.77;;
36585;SDS011;22591;48.314;11.562;2023-07-24T08:54:08;8.70;;;7.77;;
36585;SDS011;22591;48.314;11.562;2023-07-24T08:56:36;10.75;;;9.48;;
36585;SDS011;22591;48.314;11.562;2023-07-24T08:59:03;9.98;;;9.05;;
36585;SDS011;22591;48.314;11.562;2023-07-24T09:01:28;10.60;;;8.52;;
36585;SDS011;22591;48.314;11.562;2023-07-24T09:03:54;9.82;;;8.82;;
36585;SDS011;22591;48.314;11.562;2023-07-24T09:06:20;9.90;;;8.85;;
36585;SDS011;22591;48.314;11.562;2023-07-24T09:08:46;8.75;;;7.80;;
36585;SDS011;22591;48.314;11.562;2023-07-24T09:11:13;9.43;;;8.52;;
36585;SDS011;22591;48.314;11.562;2023-07-24T09:13:40;8.43;;;7.65;;
36585;SDS011;22591;48.314;11.562;2023-07-24T09:16:07;10.48;;;8.00;;
36585;SDS011;22591;48.314;11.562;2023-07-24T09:18:42;7.90;;;7.10;;
36585;SDS011;22591;48.314;11.562;2023-07-24T09:21:08;9.25;;;8.13;;
36585;SDS011;22591;48.314;11.562;2023-07-24T09:23:37;14.02;;;8.38;;
36585;SDS011;22591;48.314;11.562;2023-07-24T09:26:06;9.50;;;8.50;;
36585;SDS011;22591;48.314;11.562;2023-07-24T09:28:33;11.38;;;8.65;;
36585;SDS011;22591;48.314;11.562;2023-07-24T09:30:59;11.52;;;8.43;;
36585;SDS011;22591;48.314;11.562;2023-07-24T09:33:34;10.80;;;8.80;;
36585;SDS011;22591;48.314;11.562;2023-07-24T09:36:01;10.32;;;9.23;;
36585;SDS011;22591;48.314;11.562;2023-07-24T09:38:28;9.98;;;8.70;;
36585;SDS011;22591;48.314;11.562;2023-07-24T09:40:56;10.70;;;8.90;;
36585;SDS011;22591;48.314;11.562;2023-07-24T09:43:23;10.02;;;8.85;;
36585;SDS011;22591;48.314;11.562;2023-07-24T09:45:50;10.68;;;9.00;;
36585;SDS011;22591;48.314;11.562;2023-07-24T09:48:17;8.75;;;7.88;;
36585;SDS011;22591;48.314;11.562;2023-07-24T09:50:45;9.32;;;8.50;;
36585;SDS011;22591;48.314;11.562;2023-07-24T09:53:13;9.43;;;8.40;;
36585;SDS011;22591;48.314;11.562;2023-07-24T09:56:04;8.68;;;7.88;;
36585;SDS011;22591;48.314;11.562;2023-07-24T09:58:35;8.75;;;7.93;;
36585;SDS011;22591;48.314;11.562;2023-07-24T10:01:06;9.18;;;8.30;;
36585;SDS011;22591;48.314;11.562;2023-07-24T10:03:38;11.07;;;8.00;;
36585;SDS011;22591;48.314;11.562;2023-07-24T10:06:05;8.77;;;8.07;;
36585;SDS011;22591;48.314;11.562;2023-07-24T10:08:35;8.77;;;7.80;;
36585;SDS011;22591;48.314;11.562;2023-07-24T10:11:01;8.88;;;8.05;;
36585;SDS011;22591;48.314;11.562;2023-07-24T10:13:27;8.50;;;7.78;;
36585;SDS011;22591;48.314;11.562;2023-07-24T10:15:53;9.38;;;8.38;;
36585;SDS011;22591;48.314;11.562;2023-07-24T10:18:25;9.15;;;8.25;;
36585;SDS011;22591;48.314;11.562;2023-07-24T10:20:59;9.73;;;7.75;;
36585;SDS011;22591;48.314;11.562;2023-07-24T10:23:29;8.40;;;7.63;;
36585;SDS011;22591;48.314;11.562;2023-07-24T10:25:55;8.98;;;8.07;;
36585;SDS011;22591;48.314;11.562;2023-07-24T10:28:30;8.30;;;7.50;;
36585;SDS011;22591;48.314;11.562;2023-07-24T10:30:57;10.38;;;8.10;;
36585;SDS011;22591;48.314;11.562;2023-07-24T10:33:22;8.23;;;7.43;;
36585;SDS011;22591;48.314;11.562;2023-07-24T10:35:53;8.38;;;7.57;;
36585;SDS011;22591;48.314;11.562;2023-07-24T10:40:45;8.45;;;7.68;;
36585;SDS011;22591;48.314;11.562;2023-07-24T10:43:18;8.52;;;7.55;;
36585;SDS011;22591;48.314;11.562;2023-07-24T10:45:49;8.90;;;8.02;;
36585;SDS011;22591;48.314;11.562;2023-07-24T10:48:18;10.85;;;7.93;;
36585;SDS011;22591;48.314;11.562;2023-07-24T10:50:46;8.13;;;7.30;;
36585;SDS011;22591;48.314;11.562;2023-07-24T10:53:16;7.68;;;6.75;;
36585;SDS011;22591;48.314;11.562;2023-07-24T10:55:43;6.85;;;6.20;;
36585;SDS011;22591;48.314;11.562;2023-07-24T10:58:09;8.43;;;7.30;;
36585;SDS011;22591;48.314;11.562;2023-07-24T11:00:38;6.93;;;6.40;;
36585;SDS011;22591;48.314;11.562;2023-07-24T11:03:05;7.70;;;6.90;;
36585;SDS011;22591;48.314;11.562;2023-07-24T11:05:32;6.65;;;6.03;;
36585;SDS011;22591;48.314;11.562;2023-07-24T11:07:58;6.88;;;6.28;;
36585;SDS011;22591;48.314;11.562;2023-07-24T11:10:23;7.30;;;6.60;;
36585;SDS011;22591;48.314;11.562;2023-07-24T11:12:49;6.65;;;6.15;;
36585;SDS011;22591;48.314;11.562;2023-07-24T11:15:23;7.13;;;6.50;;
36585;SDS011;22591;48.314;11.562;2023-07-24T11:17:53;7.68;;;5.80;;
36585;SDS011;22591;48.314;11.562;2023-07-24T11:20:19;6.05;;;5.55;;
36585;SDS011;22591;48.314;11.562;2023-07-24T11:22:45;7.22;;;6.55;;
36585;SDS011;22591;48.314;11.562;2023-07-24T11:25:10;5.97;;;5.47;;
36585;SDS011;22591;48.314;11.562;2023-07-24T11:27:40;5.50;;;5.10;;
36585;SDS011;22591;48.314;11.562;2023-07-24T11:30:08;5.93;;;5.32;;
36585;SDS011;22591;48.314;11.562;2023-07-24T11:32:38;5.50;;;4.95;;
36585;SDS011;22591;48.314;11.562;2023-07-24T11:35:08;6.18;;;5.68;;
36585;SDS011;22591;48.314;11.562;2023-07-24T11:37:34;6.22;;;5.72;;
36585;SDS011;22591;48.314;11.562;2023-07-24T11:40:01;7.25;;;5.30;;
36585;SDS011;22591;48.314;11.562;2023-07-24T11:42:33;5.50;;;5.15;;
36585;SDS011;22591;48.314;11.562;2023-07-24T11:45:01;5.72;;;5.28;;
36585;SDS011;22591;48.314;11.562;2023-07-24T11:47:27;6.18;;;5.68;;
36585;SDS011;22591;48.314;11.562;2023-07-24T11:49:59;5.97;;;5.47;;
36585;SDS011;22591;48.314;11.562;2023-07-24T11:52:25;6.43;;;5.43;;
36585;SDS011;22591;48.314;11.562;2023-07-24T11:54:57;5.68;;;5.18;;
36585;SDS011;22591;48.314;11.562;2023-07-24T11:57:28;5.75;;;5.25;;
36585;SDS011;22591;48.314;11.562;2023-07-24T11:59:54;5.70;;;5.20;;
36585;SDS011;22591;48.314;11.562;2023-07-24T12:02:22;4.50;;;4.20;;
36585;SDS011;22591;48.314;11.562;2023-07-24T12:04:53;5.15;;;4.68;;
36585;SDS011;22591;48.314;11.562;2023-07-24T12:07:21;4.97;;;4.57;;
36585;SDS011;22591;48.314;11.562;2023-07-24T12:09:51;5.45;;;5.05;;
36585;SDS011;22591;48.314;11.562;2023-07-24T12:12:17;5.15;;;4.75;;
36585;SDS011;22591;48.314;11.562;2023-07-24T12:14:43;5.45;;;4.90;;
36585;SDS011;22591;48.314;11.562;2023-07-24T12:17:08;5.85;;;5.30;;
36585;SDS011;22591;48.314;11.562;2023-07-24T12:19:37;5.93;;;5.35;;
36585;SDS011;22591;48.314;11.562;2023-07-24T12:22:03;5.32;;;4.93;;
36585;SDS011;22591;48.314;11.562;2023-07-24T12:24:29;9.32;;;5.95;;
36585;SDS011;22591;48.314;11.562;2023-07-24T12:26:54;6.30;;;5.75;;
36585;SDS011;22591;48.314;11.562;2023-07-24T12:29:20;11.05;;;8.43;;
36585;SDS011;22591;48.314;11.562;2023-07-24T12:31:45;7.55;;;6.35;;
36585;SDS011;22591;48.314;11.562;2023-07-24T12:34:11;6.88;;;6.22;;
36585;SDS011;22591;48.314;11.562;2023-07-24T12:36:36;11.10;;;7.25;;
36585;SDS011;22591;48.314;11.562;2023-07-24T12:39:02;6.70;;;5.85;;
36585;SDS011;22591;48.314;11.562;2023-07-24T12:41:28;8.80;;;6.40;;
36585;SDS011;22591;48.314;11.562;2023-07-24T12:43:53;6.93;;;6.35;;
36585;SDS011;22591;48.314;11.562;2023-07-24T12:46:19;7.85;;;6.78;;
36585;SDS011;22591;48.314;11.562;2023-07-24T12:48:44;8.52;;;6.93;;
36585;SDS011;22591;48.314;11.562;2023-07-24T12:51:10;7.50;;;6.63;;
36585;SDS011;22591;48.314;11.562;2023-07-24T12:53:35;6.80;;;6.07;;
36585;SDS011;22591;48.314;11.562;2023-07-24T12:56:01;6.78;;;6.07;;
36585;SDS011;22591;48.314;11.562;2023-07-24T12:58:27;8.30;;;7.00;;
36585;SDS011;22591;48.314;11.562;2023-07-24T13:00:52;7.40;;;6.65;;
36585;SDS011;22591;48.314;11.562;2023-07-24T13:03:18;7.38;;;6.60;;
36585;SDS011;22591;48.314;11.562;2023-07-24T13:05:44;6.80;;;6.10;;
36585;SDS011;22591;48.314;11.562;2023-07-24T13:08:10;6.97;;;6.25;;
36585;SDS011;22591;48.314;11.562;2023-07-24T13:10:35;5.68;;;5.18;;
36585;SDS011;22591;48.314;11.562;2023-07-24T13:13:01;8.70;;;6.53;;
36585;SDS011;22591;48.314;11.562;2023-07-24T13:15:27;6.40;;;5.85;;
36585;SDS011;22591;48.314;11.562;2023-07-24T13:17:54;6.45;;;5.80;;
36585;SDS011;22591;48.314;11.562;2023-07-24T13:20:20;6.82;;;6.22;;
36585;SDS011;22591;48.314;11.562;2023-07-24T13:22:45;6.57;;;6.03;;
36585;SDS011;22591;48.314;11.562;2023-07-24T13:25:12;6.45;;;5.93;;
36585;SDS011;22591;48.314;11.562;2023-07-24T13:27:37;6.22;;;5.72;;
36585;SDS011;22591;48.314;11.562;2023-07-24T13:30:03;6.65;;;5.78;;
36585;SDS011;22591;48.314;11.562;2023-07-24T13:32:29;6.05;;;5.65;;
36585;SDS011;22591;48.314;11.562;2023-07-24T13:34:55;7.35;;;6.65;;
36585;SDS011;22591;48.314;11.562;2023-07-24T13:37:21;6.20;;;5.70;;
36585;SDS011;22591;48.314;11.562;2023-07-24T13:39:49;6.10;;;5.50;;
36585;SDS011;22591;48.314;11.562;2023-07-24T13:42:15;6.50;;;5.90;;
36585;SDS011;22591;48.314;11.562;2023-07-24T13:44:41;5.68;;;5.25;;
36585;SDS011;22591;48.314;11.562;2023-07-24T13:47:07;5.55;;;5.15;;
36585;SDS011;22591;48.314;11.562;2023-07-24T13:49:32;5.70;;;5.13;;
36585;SDS011;22591;48.314;11.562;2023-07-24T13:51:58;7.00;;;6.40;;
36585;SDS011;22591;48.314;11.562;2023-07-24T13:54:23;5.10;;;4.70;;
36585;SDS011;22591;48.314;11.562;2023-07-24T13:56:49;5.65;;;5.25;;
36585;SDS011;22591;48.314;11.562;2023-07-24T13:59:14;6.18;;;5.57;;
36585;SDS011;22591;48.314;11.562;2023-07-24T14:01:40;5.72;;;5.20;;
36585;SDS011;22591;48.314;11.562;2023-07-24T14:04:05;6.60;;;5.57;;
36585;SDS011;22591;48.314;11.562;2023-07-24T14:06:31;6.30;;;5.68;;
36585;SDS011;22591;48.314;11.562;2023-07-24T14:08:57;5.85;;;5.35;;
36585;SDS011;22591;48.314;11.562;2023-07-24T14:11:22;5.00;;;4.70;;
36585;SDS011;22591;48.314;11.562;2023-07-24T14:13:49;5.00;;;4.63;;
36585;SDS011;22591;48.314;11.562;2023-07-24T14:16:15;5.45;;;5.05;;
36585;SDS011;22591;48.314;11.562;2023-07-24T14:18:40;4.70;;;4.30;;
36585;SDS011;22591;48.314;11.562;2023-07-24T14:21:06;4.43;;;4.13;;
36585;SDS011;22591;48.314;11.562;2023-07-24T14:23:31;5.13;;;4.50;;